sensor_id;sensor_type;location;lat;lon;timestamp;P1;durP1;ratioP1;P2;durP2;ratioP2
54977;SDS011;40873;47.522;19.106;2023-10-08T00:01:19;5.88;;;2.33;;
54977;SDS011;40873;47.522;19.106;2023-10-08T00:03:48;5.47;;;1.90;;
54977;SDS011;40873;47.522;19.106;2023-10-08T00:06:17;5.40;;;2.03;;
54977;SDS011;40873;47.522;19.106;2023-10-08T00:08:47;5.72;;;2.42;;
54977;SDS011;40873;47.522;19.106;2023-10-08T00:11:16;7.90;;;2.30;;
54977;SDS011;40873;47.522;19.106;2023-10-08T00:13:43;8.25;;;2.00;;
54977;SDS011;40873;47.522;19.106;2023-10-08T00:16:13;6.65;;;2.13;;
54977;SDS011;40873;47.522;19.106;2023-10-08T00:18:44;5.75;;;2.35;;
54977;SDS011;40873;47.522;19.106;2023-10-08T00:21:19;6.95;;;2.08;;
54977;SDS011;40873;47.522;19.106;2023-10-08T00:23:53;6.75;;;1.88;;
54977;SDS011;40873;47.522;19.106;2023-10-08T00:26:25;6.90;;;2.53;;
54977;SDS011;40873;47.522;19.106;2023-10-08T00:29:04;7.18;;;2.55;;
54977;SDS011;40873;47.522;19.106;2023-10-08T00:32:05;5.75;;;2.20;;
54977;SDS011;40873;47.522;19.106;2023-10-08T00:34:39;8.15;;;2.55;;
54977;SDS011;40873;47.522;19.106;2023-10-08T00:37:10;5.97;;;1.80;;
54977;SDS011;40873;47.522;19.106;2023-10-08T00:39:41;4.28;;;1.80;;
54977;SDS011;40873;47.522;19.106;2023-10-08T00:42:08;9.70;;;1.88;;
54977;SDS011;40873;47.522;19.106;2023-10-08T00:44:36;7.05;;;2.20;;
54977;SDS011;40873;47.522;19.106;2023-10-08T00:47:21;7.65;;;1.92;;
54977;SDS011;40873;47.522;19.106;2023-10-08T00:49:53;7.43;;;1.90;;
54977;SDS011;40873;47.522;19.106;2023-10-08T00:52:49;7.47;;;2.10;;
54977;SDS011;40873;47.522;19.106;2023-10-08T00:55:30;5.78;;;2.05;;
54977;SDS011;40873;47.522;19.106;2023-10-08T00:58:00;5.38;;;2.03;;
54977;SDS011;40873;47.522;19.106;2023-10-08T01:00:36;5.68;;;2.10;;
54977;SDS011;40873;47.522;19.106;2023-10-08T01:03:08;6.47;;;1.75;;
54977;SDS011;40873;47.522;19.106;2023-10-08T01:05:43;6.22;;;1.88;;
54977;SDS011;40873;47.522;19.106;2023-10-08T01:08:15;5.90;;;1.70;;
54977;SDS011;40873;47.522;19.106;2023-10-08T01:11:24;5.53;;;2.17;;
54977;SDS011;40873;47.522;19.106;2023-10-08T01:14:12;4.13;;;1.55;;
54977;SDS011;40873;47.522;19.106;2023-10-08T01:16:41;5.93;;;2.28;;
54977;SDS011;40873;47.522;19.106;2023-10-08T01:19:19;5.20;;;2.20;;
54977;SDS011;40873;47.522;19.106;2023-10-08T01:21:52;6.82;;;2.15;;
54977;SDS011;40873;47.522;19.106;2023-10-08T01:24:19;6.38;;;1.55;;
54977;SDS011;40873;47.522;19.106;2023-10-08T01:26:50;5.25;;;1.63;;
54977;SDS011;40873;47.522;19.106;2023-10-08T01:29:17;6.03;;;1.85;;
54977;SDS011;40873;47.522;19.106;2023-10-08T01:31:47;7.53;;;2.22;;
54977;SDS011;40873;47.522;19.106;2023-10-08T01:34:21;6.28;;;2.20;;
54977;SDS011;40873;47.522;19.106;2023-10-08T01:36:53;5.55;;;2.15;;
54977;SDS011;40873;47.522;19.106;2023-10-08T01:39:20;8.65;;;1.67;;
54977;SDS011;40873;47.522;19.106;2023-10-08T01:41:47;6.93;;;2.40;;
54977;SDS011;40873;47.522;19.106;2023-10-08T01:44:14;5.72;;;1.95;;
54977;SDS011;40873;47.522;19.106;2023-10-08T01:46:43;6.40;;;2.20;;
54977;SDS011;40873;47.522;19.106;2023-10-08T01:49:11;11.68;;;2.80;;
54977;SDS011;40873;47.522;19.106;2023-10-08T01:51:41;4.95;;;2.03;;
54977;SDS011;40873;47.522;19.106;2023-10-08T01:54:15;5.63;;;2.00;;
54977;SDS011;40873;47.522;19.106;2023-10-08T01:56:44;6.40;;;1.90;;
54977;SDS011;40873;47.522;19.106;2023-10-08T01:59:12;5.60;;;1.98;;
54977;SDS011;40873;47.522;19.106;2023-10-08T02:01:41;5.95;;;2.03;;
54977;SDS011;40873;47.522;19.106;2023-10-08T02:04:12;6.07;;;2.08;;
54977;SDS011;40873;47.522;19.106;2023-10-08T02:06:40;5.47;;;1.83;;
54977;SDS011;40873;47.522;19.106;2023-10-08T02:09:07;6.78;;;2.25;;
54977;SDS011;40873;47.522;19.106;2023-10-08T02:11:44;7.75;;;2.20;;
54977;SDS011;40873;47.522;19.106;2023-10-08T02:14:17;8.05;;;1.75;;
54977;SDS011;40873;47.522;19.106;2023-10-08T02:16:45;5.72;;;2.33;;
54977;SDS011;40873;47.522;19.106;2023-10-08T02:19:12;7.43;;;2.05;;
54977;SDS011;40873;47.522;19.106;2023-10-08T02:21:40;4.70;;;1.80;;
54977;SDS011;40873;47.522;19.106;2023-10-08T02:24:07;6.03;;;1.73;;
54977;SDS011;40873;47.522;19.106;2023-10-08T02:26:35;6.78;;;2.25;;
54977;SDS011;40873;47.522;19.106;2023-10-08T02:29:03;10.20;;;2.65;;
54977;SDS011;40873;47.522;19.106;2023-10-08T02:31:40;8.73;;;2.25;;
54977;SDS011;40873;47.522;19.106;2023-10-08T02:34:07;5.45;;;2.08;;
54977;SDS011;40873;47.522;19.106;2023-10-08T02:36:37;5.15;;;1.73;;
54977;SDS011;40873;47.522;19.106;2023-10-08T02:39:07;5.97;;;2.22;;
54977;SDS011;40873;47.522;19.106;2023-10-08T02:41:45;7.32;;;1.73;;
54977;SDS011;40873;47.522;19.106;2023-10-08T02:44:13;8.90;;;2.00;;
54977;SDS011;40873;47.522;19.106;2023-10-08T02:46:41;9.30;;;2.42;;
54977;SDS011;40873;47.522;19.106;2023-10-08T02:49:14;5.63;;;2.20;;
54977;SDS011;40873;47.522;19.106;2023-10-08T02:51:50;6.22;;;2.58;;
54977;SDS011;40873;47.522;19.106;2023-10-08T02:54:22;6.38;;;2.45;;
54977;SDS011;40873;47.522;19.106;2023-10-08T02:56:59;6.45;;;2.13;;
54977;SDS011;40873;47.522;19.106;2023-10-08T02:59:31;9.93;;;1.80;;
54977;SDS011;40873;47.522;19.106;2023-10-08T03:02:11;7.80;;;2.15;;
54977;SDS011;40873;47.522;19.106;2023-10-08T03:04:52;6.75;;;2.10;;
54977;SDS011;40873;47.522;19.106;2023-10-08T03:07:19;10.20;;;2.30;;
54977;SDS011;40873;47.522;19.106;2023-10-08T03:10:07;5.20;;;2.20;;
54977;SDS011;40873;47.522;19.106;2023-10-08T03:12:45;10.32;;;2.28;;
54977;SDS011;40873;47.522;19.106;2023-10-08T03:15:15;9.07;;;2.35;;
54977;SDS011;40873;47.522;19.106;2023-10-08T03:17:54;7.90;;;1.88;;
54977;SDS011;40873;47.522;19.106;2023-10-08T03:20:24;8.52;;;2.00;;
54977;SDS011;40873;47.522;19.106;2023-10-08T03:23:10;10.45;;;1.80;;
54977;SDS011;40873;47.522;19.106;2023-10-08T03:25:54;6.97;;;2.00;;
54977;SDS011;40873;47.522;19.106;2023-10-08T03:28:36;4.55;;;1.48;;
54977;SDS011;40873;47.522;19.106;2023-10-08T03:31:04;6.78;;;2.22;;
54977;SDS011;40873;47.522;19.106;2023-10-08T03:33:32;6.97;;;2.67;;
54977;SDS011;40873;47.522;19.106;2023-10-08T03:36:07;6.40;;;1.98;;
54977;SDS011;40873;47.522;19.106;2023-10-08T03:38:47;9.13;;;1.98;;
54977;SDS011;40873;47.522;19.106;2023-10-08T03:41:21;8.18;;;2.25;;
54977;SDS011;40873;47.522;19.106;2023-10-08T03:43:54;13.15;;;2.45;;
54977;SDS011;40873;47.522;19.106;2023-10-08T03:46:29;6.10;;;2.28;;
54977;SDS011;40873;47.522;19.106;2023-10-08T03:48:59;6.35;;;1.95;;
54977;SDS011;40873;47.522;19.106;2023-10-08T03:51:31;5.53;;;1.55;;
54977;SDS011;40873;47.522;19.106;2023-10-08T03:54:06;7.20;;;2.00;;
54977;SDS011;40873;47.522;19.106;2023-10-08T03:56:36;6.70;;;2.05;;
54977;SDS011;40873;47.522;19.106;2023-10-08T03:59:03;8.20;;;2.20;;
54977;SDS011;40873;47.522;19.106;2023-10-08T04:01:40;7.47;;;2.05;;
54977;SDS011;40873;47.522;19.106;2023-10-08T04:04:09;11.65;;;2.53;;
54977;SDS011;40873;47.522;19.106;2023-10-08T04:06:41;4.82;;;1.70;;
54977;SDS011;40873;47.522;19.106;2023-10-08T04:09:16;7.85;;;2.15;;
54977;SDS011;40873;47.522;19.106;2023-10-08T04:11:51;7.00;;;2.15;;
54977;SDS011;40873;47.522;19.106;2023-10-08T04:14:24;10.88;;;2.13;;
54977;SDS011;40873;47.522;19.106;2023-10-08T04:16:55;6.47;;;1.83;;
54977;SDS011;40873;47.522;19.106;2023-10-08T04:19:22;6.80;;;2.70;;
54977;SDS011;40873;47.522;19.106;2023-10-08T04:24:23;9.38;;;2.05;;
54977;SDS011;40873;47.522;19.106;2023-10-08T04:26:56;4.55;;;1.70;;
54977;SDS011;40873;47.522;19.106;2023-10-08T04:29:24;7.78;;;1.92;;
54977;SDS011;40873;47.522;19.106;2023-10-08T04:31:53;6.25;;;1.63;;
54977;SDS011;40873;47.522;19.106;2023-10-08T04:34:38;4.97;;;1.50;;
54977;SDS011;40873;47.522;19.106;2023-10-08T04:37:11;6.25;;;1.77;;
54977;SDS011;40873;47.522;19.106;2023-10-08T04:39:45;8.20;;;2.38;;
54977;SDS011;40873;47.522;19.106;2023-10-08T04:42:18;6.18;;;2.40;;
54977;SDS011;40873;47.522;19.106;2023-10-08T04:44:52;8.68;;;2.38;;
54977;SDS011;40873;47.522;19.106;2023-10-08T04:47:22;6.22;;;1.77;;
54977;SDS011;40873;47.522;19.106;2023-10-08T04:50:02;9.88;;;2.28;;
54977;SDS011;40873;47.522;19.106;2023-10-08T04:52:41;4.55;;;1.77;;
54977;SDS011;40873;47.522;19.106;2023-10-08T04:55:14;8.63;;;2.05;;
54977;SDS011;40873;47.522;19.106;2023-10-08T04:57:47;6.32;;;2.47;;
54977;SDS011;40873;47.522;19.106;2023-10-08T05:00:15;7.30;;;1.92;;
54977;SDS011;40873;47.522;19.106;2023-10-08T05:02:43;7.57;;;2.78;;
54977;SDS011;40873;47.522;19.106;2023-10-08T05:05:17;10.98;;;2.67;;
54977;SDS011;40873;47.522;19.106;2023-10-08T05:07:44;9.05;;;2.20;;
54977;SDS011;40873;47.522;19.106;2023-10-08T05:10:12;8.65;;;2.00;;
54977;SDS011;40873;47.522;19.106;2023-10-08T05:12:52;8.65;;;1.77;;
54977;SDS011;40873;47.522;19.106;2023-10-08T05:15:33;7.15;;;1.85;;
54977;SDS011;40873;47.522;19.106;2023-10-08T05:18:03;10.82;;;2.28;;
54977;SDS011;40873;47.522;19.106;2023-10-08T05:20:50;7.68;;;1.52;;
54977;SDS011;40873;47.522;19.106;2023-10-08T05:23:18;9.77;;;2.13;;
54977;SDS011;40873;47.522;19.106;2023-10-08T05:25:56;9.15;;;2.13;;
54977;SDS011;40873;47.522;19.106;2023-10-08T05:28:34;8.43;;;2.50;;
54977;SDS011;40873;47.522;19.106;2023-10-08T05:31:09;4.55;;;1.58;;
54977;SDS011;40873;47.522;19.106;2023-10-08T05:33:42;6.95;;;2.25;;
54977;SDS011;40873;47.522;19.106;2023-10-08T05:36:28;6.43;;;1.75;;
54977;SDS011;40873;47.522;19.106;2023-10-08T05:39:02;7.88;;;1.88;;
54977;SDS011;40873;47.522;19.106;2023-10-08T05:41:59;7.70;;;2.17;;
54977;SDS011;40873;47.522;19.106;2023-10-08T05:44:53;6.10;;;1.77;;
54977;SDS011;40873;47.522;19.106;2023-10-08T05:47:35;6.97;;;1.77;;
54977;SDS011;40873;47.522;19.106;2023-10-08T05:50:02;7.72;;;1.98;;
54977;SDS011;40873;47.522;19.106;2023-10-08T05:52:42;7.72;;;2.58;;
54977;SDS011;40873;47.522;19.106;2023-10-08T05:55:27;8.63;;;2.17;;
54977;SDS011;40873;47.522;19.106;2023-10-08T05:58:04;8.48;;;1.95;;
54977;SDS011;40873;47.522;19.106;2023-10-08T06:01:01;8.18;;;2.53;;
54977;SDS011;40873;47.522;19.106;2023-10-08T06:03:49;9.82;;;2.22;;
54977;SDS011;40873;47.522;19.106;2023-10-08T06:06:27;5.53;;;2.03;;
54977;SDS011;40873;47.522;19.106;2023-10-08T06:09:04;6.20;;;1.95;;
54977;SDS011;40873;47.522;19.106;2023-10-08T06:11:33;7.20;;;2.08;;
54977;SDS011;40873;47.522;19.106;2023-10-08T06:14:24;14.57;;;2.22;;
54977;SDS011;40873;47.522;19.106;2023-10-08T06:17:19;10.80;;;4.40;;
54977;SDS011;40873;47.522;19.106;2023-10-08T06:20:05;6.82;;;2.00;;
54977;SDS011;40873;47.522;19.106;2023-10-08T06:22:43;9.27;;;2.20;;
54977;SDS011;40873;47.522;19.106;2023-10-08T06:25:11;8.50;;;2.92;;
54977;SDS011;40873;47.522;19.106;2023-10-08T06:27:45;5.72;;;1.88;;
54977;SDS011;40873;47.522;19.106;2023-10-08T06:30:12;6.97;;;1.95;;
54977;SDS011;40873;47.522;19.106;2023-10-08T06:32:44;4.28;;;1.65;;
54977;SDS011;40873;47.522;19.106;2023-10-08T06:35:11;8.77;;;2.10;;
54977;SDS011;40873;47.522;19.106;2023-10-08T06:40:16;5.85;;;1.80;;
54977;SDS011;40873;47.522;19.106;2023-10-08T06:43:01;6.40;;;1.92;;
54977;SDS011;40873;47.522;19.106;2023-10-08T06:45:39;8.38;;;2.55;;
54977;SDS011;40873;47.522;19.106;2023-10-08T06:48:10;4.90;;;1.70;;
54977;SDS011;40873;47.522;19.106;2023-10-08T06:50:45;5.65;;;2.58;;
54977;SDS011;40873;47.522;19.106;2023-10-08T06:53:20;8.95;;;2.25;;
54977;SDS011;40873;47.522;19.106;2023-10-08T06:55:48;6.05;;;2.20;;
54977;SDS011;40873;47.522;19.106;2023-10-08T06:58:23;12.77;;;2.28;;
54977;SDS011;40873;47.522;19.106;2023-10-08T07:00:51;6.53;;;2.05;;
54977;SDS011;40873;47.522;19.106;2023-10-08T07:03:19;6.70;;;2.38;;
54977;SDS011;40873;47.522;19.106;2023-10-08T07:05:48;6.20;;;2.30;;
54977;SDS011;40873;47.522;19.106;2023-10-08T07:08:27;5.65;;;1.88;;
54977;SDS011;40873;47.522;19.106;2023-10-08T07:11:00;6.10;;;2.17;;
54977;SDS011;40873;47.522;19.106;2023-10-08T07:13:33;9.38;;;2.25;;
54977;SDS011;40873;47.522;19.106;2023-10-08T07:16:03;7.25;;;2.03;;
54977;SDS011;40873;47.522;19.106;2023-10-08T07:18:31;9.90;;;2.85;;
54977;SDS011;40873;47.522;19.106;2023-10-08T07:21:02;5.78;;;2.10;;
54977;SDS011;40873;47.522;19.106;2023-10-08T07:23:30;9.05;;;2.28;;
54977;SDS011;40873;47.522;19.106;2023-10-08T07:26:02;7.80;;;2.45;;
54977;SDS011;40873;47.522;19.106;2023-10-08T07:28:41;4.13;;;1.60;;
54977;SDS011;40873;47.522;19.106;2023-10-08T07:31:15;6.95;;;1.92;;
54977;SDS011;40873;47.522;19.106;2023-10-08T07:33:46;7.47;;;2.20;;
54977;SDS011;40873;47.522;19.106;2023-10-08T07:36:13;6.15;;;2.25;;
54977;SDS011;40873;47.522;19.106;2023-10-08T07:38:41;5.10;;;2.05;;
54977;SDS011;40873;47.522;19.106;2023-10-08T07:41:11;8.73;;;2.15;;
54977;SDS011;40873;47.522;19.106;2023-10-08T07:43:41;9.90;;;2.85;;
54977;SDS011;40873;47.522;19.106;2023-10-08T07:46:08;10.13;;;2.50;;
54977;SDS011;40873;47.522;19.106;2023-10-08T07:48:36;6.50;;;2.35;;
54977;SDS011;40873;47.522;19.106;2023-10-08T07:51:10;7.78;;;2.40;;
54977;SDS011;40873;47.522;19.106;2023-10-08T07:53:37;6.82;;;2.45;;
54977;SDS011;40873;47.522;19.106;2023-10-08T07:56:08;9.57;;;2.28;;
54977;SDS011;40873;47.522;19.106;2023-10-08T07:58:37;10.07;;;2.40;;
54977;SDS011;40873;47.522;19.106;2023-10-08T08:01:10;8.07;;;2.88;;
54977;SDS011;40873;47.522;19.106;2023-10-08T08:03:40;4.70;;;2.00;;
54977;SDS011;40873;47.522;19.106;2023-10-08T08:06:08;7.07;;;1.92;;
54977;SDS011;40873;47.522;19.106;2023-10-08T08:08:37;7.38;;;2.08;;
54977;SDS011;40873;47.522;19.106;2023-10-08T08:11:05;6.15;;;2.55;;
54977;SDS011;40873;47.522;19.106;2023-10-08T08:13:39;12.50;;;2.60;;
54977;SDS011;40873;47.522;19.106;2023-10-08T08:16:10;5.20;;;2.28;;
54977;SDS011;40873;47.522;19.106;2023-10-08T08:18:45;8.23;;;3.97;;
54977;SDS011;40873;47.522;19.106;2023-10-08T08:21:13;10.43;;;2.67;;
54977;SDS011;40873;47.522;19.106;2023-10-08T08:23:42;8.98;;;2.58;;
54977;SDS011;40873;47.522;19.106;2023-10-08T08:26:19;9.55;;;2.22;;
54977;SDS011;40873;47.522;19.106;2023-10-08T08:28:56;8.25;;;2.08;;
54977;SDS011;40873;47.522;19.106;2023-10-08T08:31:26;8.40;;;3.00;;
54977;SDS011;40873;47.522;19.106;2023-10-08T08:33:58;6.05;;;2.30;;
54977;SDS011;40873;47.522;19.106;2023-10-08T08:36:40;6.43;;;2.15;;
54977;SDS011;40873;47.522;19.106;2023-10-08T08:39:13;8.73;;;2.38;;
54977;SDS011;40873;47.522;19.106;2023-10-08T08:41:59;5.82;;;2.00;;
54977;SDS011;40873;47.522;19.106;2023-10-08T08:44:27;8.18;;;2.38;;
54977;SDS011;40873;47.522;19.106;2023-10-08T08:46:58;9.38;;;2.13;;
54977;SDS011;40873;47.522;19.106;2023-10-08T08:49:32;8.57;;;2.72;;
54977;SDS011;40873;47.522;19.106;2023-10-08T08:52:01;7.35;;;2.08;;
54977;SDS011;40873;47.522;19.106;2023-10-08T08:54:28;8.02;;;2.60;;
54977;SDS011;40873;47.522;19.106;2023-10-08T08:56:57;16.15;;;2.67;;
54977;SDS011;40873;47.522;19.106;2023-10-08T08:59:29;7.15;;;2.03;;
54977;SDS011;40873;47.522;19.106;2023-10-08T09:01:57;10.05;;;2.00;;
54977;SDS011;40873;47.522;19.106;2023-10-08T09:04:30;10.25;;;2.13;;
54977;SDS011;40873;47.522;19.106;2023-10-08T09:07:00;11.25;;;2.22;;
54977;SDS011;40873;47.522;19.106;2023-10-08T09:09:31;9.48;;;2.72;;
54977;SDS011;40873;47.522;19.106;2023-10-08T09:11:59;11.27;;;2.22;;
54977;SDS011;40873;47.522;19.106;2023-10-08T09:14:28;8.18;;;2.40;;
54977;SDS011;40873;47.522;19.106;2023-10-08T09:16:56;12.10;;;2.55;;
54977;SDS011;40873;47.522;19.106;2023-10-08T09:19:23;6.57;;;2.00;;
54977;SDS011;40873;47.522;19.106;2023-10-08T09:22:07;8.85;;;2.67;;
54977;SDS011;40873;47.522;19.106;2023-10-08T09:24:39;9.85;;;2.50;;
54977;SDS011;40873;47.522;19.106;2023-10-08T09:27:08;7.55;;;2.45;;
54977;SDS011;40873;47.522;19.106;2023-10-08T09:29:42;11.00;;;2.65;;
54977;SDS011;40873;47.522;19.106;2023-10-08T09:32:10;7.53;;;2.50;;
54977;SDS011;40873;47.522;19.106;2023-10-08T09:34:40;6.28;;;2.15;;
54977;SDS011;40873;47.522;19.106;2023-10-08T09:37:07;11.73;;;2.45;;
54977;SDS011;40873;47.522;19.106;2023-10-08T09:39:35;7.70;;;2.55;;
54977;SDS011;40873;47.522;19.106;2023-10-08T09:42:05;17.10;;;2.42;;
54977;SDS011;40873;47.522;19.106;2023-10-08T09:44:34;7.82;;;2.33;;
54977;SDS011;40873;47.522;19.106;2023-10-08T09:47:05;8.45;;;2.10;;
54977;SDS011;40873;47.522;19.106;2023-10-08T09:49:33;8.02;;;2.33;;
54977;SDS011;40873;47.522;19.106;2023-10-08T09:52:08;8.02;;;2.10;;
54977;SDS011;40873;47.522;19.106;2023-10-08T09:54:43;8.07;;;2.10;;
54977;SDS011;40873;47.522;19.106;2023-10-08T09:57:15;8.70;;;2.15;;
54977;SDS011;40873;47.522;19.106;2023-10-08T09:59:46;6.47;;;2.22;;
54977;SDS011;40873;47.522;19.106;2023-10-08T10:02:16;11.05;;;2.40;;
54977;SDS011;40873;47.522;19.106;2023-10-08T10:04:49;10.20;;;2.58;;
54977;SDS011;40873;47.522;19.106;2023-10-08T10:09:49;7.72;;;2.70;;
54977;SDS011;40873;47.522;19.106;2023-10-08T10:12:18;6.78;;;2.38;;
54977;SDS011;40873;47.522;19.106;2023-10-08T10:14:53;8.77;;;2.05;;
54977;SDS011;40873;47.522;19.106;2023-10-08T10:17:27;4.80;;;1.58;;
54977;SDS011;40873;47.522;19.106;2023-10-08T10:20:10;7.35;;;1.92;;
54977;SDS011;40873;47.522;19.106;2023-10-08T10:22:41;3.42;;;1.48;;
54977;SDS011;40873;47.522;19.106;2023-10-08T10:25:15;10.85;;;1.77;;
54977;SDS011;40873;47.522;19.106;2023-10-08T10:30:18;4.57;;;1.45;;
54977;SDS011;40873;47.522;19.106;2023-10-08T10:32:52;7.82;;;1.85;;
54977;SDS011;40873;47.522;19.106;2023-10-08T10:35:20;6.78;;;1.58;;
54977;SDS011;40873;47.522;19.106;2023-10-08T10:37:47;6.20;;;1.38;;
54977;SDS011;40873;47.522;19.106;2023-10-08T10:40:22;4.53;;;1.35;;
54977;SDS011;40873;47.522;19.106;2023-10-08T10:43:10;7.32;;;2.20;;
54977;SDS011;40873;47.522;19.106;2023-10-08T10:45:38;6.35;;;1.35;;
54977;SDS011;40873;47.522;19.106;2023-10-08T10:48:13;3.00;;;1.08;;
54977;SDS011;40873;47.522;19.106;2023-10-08T10:50:48;3.97;;;0.60;;
54977;SDS011;40873;47.522;19.106;2023-10-08T10:53:38;2.45;;;0.45;;
54977;SDS011;40873;47.522;19.106;2023-10-08T10:56:36;2.13;;;0.60;;
54977;SDS011;40873;47.522;19.106;2023-10-08T10:59:09;1.77;;;0.50;;
54977;SDS011;40873;47.522;19.106;2023-10-08T11:01:45;3.53;;;0.52;;
54977;SDS011;40873;47.522;19.106;2023-10-08T11:04:21;0.63;;;0.20;;
54977;SDS011;40873;47.522;19.106;2023-10-08T11:06:56;0.55;;;0.20;;
54977;SDS011;40873;47.522;19.106;2023-10-08T11:09:27;2.28;;;0.20;;
54977;SDS011;40873;47.522;19.106;2023-10-08T11:12:07;1.02;;;0.40;;
54977;SDS011;40873;47.522;19.106;2023-10-08T11:14:41;1.88;;;0.25;;
54977;SDS011;40873;47.522;19.106;2023-10-08T11:17:13;1.10;;;0.30;;
54977;SDS011;40873;47.522;19.106;2023-10-08T11:19:44;0.50;;;0.25;;
54977;SDS011;40873;47.522;19.106;2023-10-08T11:22:15;0.88;;;0.25;;
54977;SDS011;40873;47.522;19.106;2023-10-08T11:24:45;2.83;;;0.40;;
54977;SDS011;40873;47.522;19.106;2023-10-08T11:27:20;0.82;;;0.22;;
54977;SDS011;40873;47.522;19.106;2023-10-08T11:30:02;1.30;;;0.20;;
54977;SDS011;40873;47.522;19.106;2023-10-08T11:32:38;0.98;;;0.20;;
54977;SDS011;40873;47.522;19.106;2023-10-08T11:35:05;0.38;;;0.10;;
54977;SDS011;40873;47.522;19.106;2023-10-08T11:37:46;0.10;;;0.10;;
54977;SDS011;40873;47.522;19.106;2023-10-08T11:40:25;0.30;;;0.10;;
54977;SDS011;40873;47.522;19.106;2023-10-08T11:42:57;0.68;;;0.20;;
54977;SDS011;40873;47.522;19.106;2023-10-08T11:48:05;5.93;;;0.10;;
54977;SDS011;40873;47.522;19.106;2023-10-08T11:50:39;3.92;;;0.43;;
54977;SDS011;40873;47.522;19.106;2023-10-08T11:53:07;0.10;;;0.10;;
54977;SDS011;40873;47.522;19.106;2023-10-08T11:55:35;1.58;;;0.10;;
54977;SDS011;40873;47.522;19.106;2023-10-08T11:58:07;0.40;;;0.10;;
54977;SDS011;40873;47.522;19.106;2023-10-08T12:00:38;0.40;;;0.10;;
54977;SDS011;40873;47.522;19.106;2023-10-08T12:03:14;0.22;;;0.10;;
54977;SDS011;40873;47.522;19.106;2023-10-08T12:05:46;1.05;;;0.20;;
54977;SDS011;40873;47.522;19.106;2023-10-08T12:08:25;0.45;;;0.10;;
54977;SDS011;40873;47.522;19.106;2023-10-08T12:10:56;1.15;;;0.30;;
54977;SDS011;40873;47.522;19.106;2023-10-08T12:13:26;0.10;;;0.10;;
54977;SDS011;40873;47.522;19.106;2023-10-08T12:15:56;2.80;;;0.20;;
54977;SDS011;40873;47.522;19.106;2023-10-08T12:18:33;6.00;;;1.40;;
54977;SDS011;40873;47.522;19.106;2023-10-08T12:21:07;2.00;;;0.10;;
54977;SDS011;40873;47.522;19.106;2023-10-08T12:23:38;2.72;;;0.10;;
54977;SDS011;40873;47.522;19.106;2023-10-08T12:26:05;1.10;;;0.20;;
54977;SDS011;40873;47.522;19.106;2023-10-08T12:28:35;0.55;;;0.10;;
54977;SDS011;40873;47.522;19.106;2023-10-08T12:31:05;0.22;;;0.00;;
54977;SDS011;40873;47.522;19.106;2023-10-08T12:33:32;2.72;;;0.20;;
54977;SDS011;40873;47.522;19.106;2023-10-08T12:36:00;0.65;;;0.43;;
54977;SDS011;40873;47.522;19.106;2023-10-08T12:38:38;9.93;;;1.10;;
54977;SDS011;40873;47.522;19.106;2023-10-08T12:41:08;6.85;;;1.60;;
54977;SDS011;40873;47.522;19.106;2023-10-08T12:43:41;0.60;;;0.10;;
54977;SDS011;40873;47.522;19.106;2023-10-08T12:46:12;3.35;;;0.63;;
54977;SDS011;40873;47.522;19.106;2023-10-08T12:48:45;0.52;;;0.20;;
54977;SDS011;40873;47.522;19.106;2023-10-08T12:51:15;0.57;;;0.10;;
54977;SDS011;40873;47.522;19.106;2023-10-08T12:53:42;0.50;;;0.20;;
54977;SDS011;40873;47.522;19.106;2023-10-08T12:56:17;4.03;;;0.20;;
54977;SDS011;40873;47.522;19.106;2023-10-08T12:58:48;1.13;;;0.32;;
54977;SDS011;40873;47.522;19.106;2023-10-08T13:01:15;1.67;;;0.20;;
54977;SDS011;40873;47.522;19.106;2023-10-08T13:03:45;0.82;;;0.15;;
54977;SDS011;40873;47.522;19.106;2023-10-08T13:06:18;2.67;;;0.88;;
54977;SDS011;40873;47.522;19.106;2023-10-08T13:08:55;3.58;;;0.20;;
54977;SDS011;40873;47.522;19.106;2023-10-08T13:11:25;2.00;;;0.45;;
54977;SDS011;40873;47.522;19.106;2023-10-08T13:13:53;0.52;;;0.10;;
54977;SDS011;40873;47.522;19.106;2023-10-08T13:16:25;0.95;;;0.20;;
54977;SDS011;40873;47.522;19.106;2023-10-08T13:18:58;0.40;;;0.10;;
54977;SDS011;40873;47.522;19.106;2023-10-08T13:21:26;0.90;;;0.40;;
54977;SDS011;40873;47.522;19.106;2023-10-08T13:23:55;0.43;;;0.20;;
54977;SDS011;40873;47.522;19.106;2023-10-08T13:26:26;1.02;;;0.20;;
54977;SDS011;40873;47.522;19.106;2023-10-08T13:28:58;0.47;;;0.20;;
54977;SDS011;40873;47.522;19.106;2023-10-08T13:31:26;0.70;;;0.20;;
54977;SDS011;40873;47.522;19.106;2023-10-08T13:33:54;0.60;;;0.20;;
54977;SDS011;40873;47.522;19.106;2023-10-08T13:36:23;0.47;;;0.20;;
54977;SDS011;40873;47.522;19.106;2023-10-08T13:38:50;0.95;;;0.20;;
54977;SDS011;40873;47.522;19.106;2023-10-08T13:41:18;1.83;;;0.30;;
54977;SDS011;40873;47.522;19.106;2023-10-08T13:43:49;1.65;;;0.30;;
54977;SDS011;40873;47.522;19.106;2023-10-08T13:46:19;0.68;;;0.30;;
54977;SDS011;40873;47.522;19.106;2023-10-08T13:48:50;0.40;;;0.22;;
54977;SDS011;40873;47.522;19.106;2023-10-08T13:51:20;1.80;;;0.30;;
54977;SDS011;40873;47.522;19.106;2023-10-08T13:53:56;1.33;;;0.30;;
54977;SDS011;40873;47.522;19.106;2023-10-08T13:56:27;0.70;;;0.28;;
54977;SDS011;40873;47.522;19.106;2023-10-08T13:58:59;0.35;;;0.20;;
54977;SDS011;40873;47.522;19.106;2023-10-08T14:01:40;1.58;;;0.20;;
54977;SDS011;40873;47.522;19.106;2023-10-08T14:04:29;3.67;;;0.40;;
54977;SDS011;40873;47.522;19.106;2023-10-08T14:07:06;1.95;;;0.60;;
54977;SDS011;40873;47.522;19.106;2023-10-08T14:09:34;3.85;;;0.45;;
54977;SDS011;40873;47.522;19.106;2023-10-08T14:12:04;0.60;;;0.30;;
54977;SDS011;40873;47.522;19.106;2023-10-08T14:14:34;0.43;;;0.30;;
54977;SDS011;40873;47.522;19.106;2023-10-08T14:17:07;0.70;;;0.32;;
54977;SDS011;40873;47.522;19.106;2023-10-08T14:19:37;1.05;;;0.45;;
54977;SDS011;40873;47.522;19.106;2023-10-08T14:22:18;1.00;;;0.57;;
54977;SDS011;40873;47.522;19.106;2023-10-08T14:24:49;1.42;;;0.60;;
54977;SDS011;40873;47.522;19.106;2023-10-08T14:27:26;1.15;;;0.40;;
54977;SDS011;40873;47.522;19.106;2023-10-08T14:29:59;2.67;;;0.43;;
54977;SDS011;40873;47.522;19.106;2023-10-08T14:32:32;3.33;;;0.90;;
54977;SDS011;40873;47.522;19.106;2023-10-08T14:35:00;2.25;;;0.65;;
54977;SDS011;40873;47.522;19.106;2023-10-08T14:37:45;1.75;;;0.70;;
54977;SDS011;40873;47.522;19.106;2023-10-08T14:40:51;1.00;;;0.50;;
54977;SDS011;40873;47.522;19.106;2023-10-08T14:43:37;2.35;;;0.60;;
54977;SDS011;40873;47.522;19.106;2023-10-08T14:46:04;2.70;;;1.65;;
54977;SDS011;40873;47.522;19.106;2023-10-08T14:48:35;2.17;;;0.65;;
54977;SDS011;40873;47.522;19.106;2023-10-08T14:51:03;1.73;;;0.57;;
54977;SDS011;40873;47.522;19.106;2023-10-08T14:53:33;1.85;;;0.77;;
54977;SDS011;40873;47.522;19.106;2023-10-08T14:56:05;3.70;;;0.80;;
54977;SDS011;40873;47.522;19.106;2023-10-08T14:58:32;2.40;;;0.85;;
54977;SDS011;40873;47.522;19.106;2023-10-08T15:00:59;2.63;;;0.77;;
54977;SDS011;40873;47.522;19.106;2023-10-08T15:03:27;2.83;;;0.55;;
54977;SDS011;40873;47.522;19.106;2023-10-08T15:05:56;3.10;;;0.90;;
54977;SDS011;40873;47.522;19.106;2023-10-08T15:08:26;2.67;;;1.00;;
54977;SDS011;40873;47.522;19.106;2023-10-08T15:10:54;3.35;;;0.80;;
54977;SDS011;40873;47.522;19.106;2023-10-08T15:13:20;4.22;;;0.90;;
54977;SDS011;40873;47.522;19.106;2023-10-08T15:15:47;1.27;;;0.77;;
54977;SDS011;40873;47.522;19.106;2023-10-08T15:18:16;1.85;;;0.82;;
54977;SDS011;40873;47.522;19.106;2023-10-08T15:20:45;3.10;;;1.17;;